createdAt,value
2018-02-06T00:11:01.818Z,87.79
2018-02-06T00:26:01.586Z,88.08
2018-02-06T00:36:01.660Z,87.55
2018-02-06T00:46:01.647Z,87.29
2018-02-06T00:56:01.587Z,87.07
2018-02-06T01:01:01.598Z,87.46
2018-02-06T01:11:01.685Z,87.73
2018-02-06T01:21:01.684Z,87.17
2018-02-06T01:31:01.608Z,87.21
2018-02-06T01:46:01.670Z,87.23
2018-02-06T02:01:01.617Z,87.60
2018-02-06T02:16:01.758Z,87.99
2018-02-06T02:21:01.692Z,88.00
2018-02-06T02:31:01.628Z,87.91
2018-02-06T04:41:01.604Z,89.44
2018-02-06T04:56:01.642Z,89.25
2018-02-06T05:06:01.747Z,89.26
2018-02-06T05:21:01.750Z,89.40
2018-02-06T05:36:01.725Z,89.29
2018-02-06T05:51:01.750Z,89.58
2018-02-06T06:06:01.608Z,89.63
2018-02-06T06:16:01.545Z,89.44
2018-02-06T06:31:01.547Z,88.45
2018-02-06T06:37:01.574Z,88.45
2018-02-06T06:47:01.521Z,88.67
2018-02-06T06:52:01.529Z,88.67
2018-02-06T06:57:01.485Z,88.67
2018-02-06T07:07:01.541Z,88.05
2018-02-06T07:12:01.562Z,88.70
2018-02-06T07:17:01.529Z,88.70
2018-02-06T07:22:01.534Z,88.84
2018-02-06T07:33:01.527Z,89.53
2018-02-06T07:48:01.563Z,89.51
2018-02-06T08:03:01.558Z,89.41
2018-02-06T08:13:01.579Z,89.77
2018-02-06T08:19:01.529Z,89.66
2018-02-06T08:24:01.565Z,89.66
2018-02-06T08:29:01.520Z,89.52
2018-02-06T08:34:01.521Z,89.52
2018-02-06T08:39:01.535Z,89.07
2018-02-06T08:44:01.548Z,89.07
2018-02-06T08:49:01.521Z,88.65
2018-02-06T08:54:01.544Z,88.65
2018-02-06T08:59:01.600Z,87.79
2018-02-06T09:04:01.547Z,87.79
2018-02-06T09:09:01.768Z,86.51
2018-02-06T09:14:01.630Z,86.51
2018-02-06T09:19:06.714Z,85.95
2018-02-06T09:24:01.625Z,85.95
2018-02-06T09:29:01.756Z,85.18
2018-02-06T09:44:01.789Z,85.34
2018-02-06T09:49:02.840Z,85.50
2018-02-06T09:54:01.602Z,85.50
2018-02-06T09:59:01.799Z,85.43
2018-02-06T10:09:01.708Z,84.52
2018-02-06T10:14:01.636Z,84.52
2018-02-06T10:24:01.762Z,83.40
2018-02-06T10:39:02.816Z,82.11
2018-02-06T10:54:01.765Z,80.82
2018-02-06T10:59:02.979Z,78.74
2018-02-06T11:09:01.712Z,79.03
2018-02-06T11:14:01.634Z,79.03
2018-02-06T11:29:01.698Z,75.80
2018-02-06T11:34:01.649Z,75.80
2018-02-06T11:44:01.741Z,74.97
2018-02-06T11:55:01.413Z,72.75
2018-02-06T12:00:01.905Z,74.06
2018-02-06T12:15:01.742Z,74.33
2018-02-06T12:30:01.896Z,75.10
2018-02-06T12:40:01.803Z,73.23
2018-02-06T12:45:01.860Z,73.23
2018-02-06T13:01:06.589Z,68.51
2018-02-06T13:11:01.909Z,68.18
2018-02-06T13:26:01.739Z,67.56
2018-02-06T13:41:01.778Z,69.40
2018-02-06T13:51:01.696Z,67.61
2018-02-06T13:56:01.628Z,67.61
2018-02-06T14:11:01.769Z,69.62
2018-02-06T14:21:01.775Z,67.18
2018-02-06T14:36:01.631Z,68.52
2018-02-06T14:51:01.823Z,70.68
2018-02-06T14:56:01.755Z,70.68
2018-02-06T15:06:01.770Z,70.26
2018-02-06T15:11:01.790Z,70.94
2018-02-06T15:21:01.532Z,71.23
2018-02-06T15:26:01.531Z,71.23
2018-02-06T15:31:01.529Z,70.32
2018-02-06T15:41:01.530Z,70.43
2018-02-06T15:51:01.707Z,71.11
2018-02-06T15:56:01.532Z,71.11
2018-02-06T16:06:01.559Z,71.21
2018-02-06T16:11:01.540Z,70.69
2018-02-06T16:16:01.539Z,70.69
2018-02-06T16:22:01.542Z,71.23
2018-02-06T16:32:01.538Z,72.11
2018-02-06T16:42:01.524Z,71.36
2018-02-06T16:47:01.527Z,71.36
2018-02-06T16:52:01.559Z,71.24
2018-02-06T17:02:01.560Z,72.12
2018-02-06T17:07:01.560Z,72.12
2018-02-06T17:12:01.614Z,73.60
2018-02-06T17:17:01.590Z,73.60
2018-02-06T17:22:01.411Z,75.13
2018-02-06T17:32:01.754Z,75.18
2018-02-06T17:37:01.627Z,75.18
2018-02-06T17:42:01.762Z,75.68
2018-02-06T17:47:01.648Z,75.68
2018-02-06T17:52:01.698Z,74.35
2018-02-06T17:57:01.642Z,74.35
2018-02-06T18:02:01.695Z,74.24
2018-02-06T18:12:01.761Z,75.89
2018-02-06T18:22:01.764Z,76.65
2018-02-06T18:27:01.667Z,76.65
2018-02-06T18:32:01.683Z,78.94
2018-02-06T18:42:01.780Z,79.90
2018-02-06T18:47:01.720Z,79.90
2018-02-06T18:57:01.773Z,78.68
2018-02-06T19:02:01.690Z,81.04
2018-02-06T19:07:01.736Z,81.04
2018-02-06T19:12:01.780Z,80.90
2018-02-06T19:17:01.639Z,80.90
2018-02-06T19:23:01.748Z,81.80
2018-02-06T19:28:01.638Z,82.78
2018-02-06T19:33:01.748Z,82.78
2018-02-06T19:38:01.667Z,83.27
2018-02-06T19:43:01.692Z,83.27
2018-02-06T19:48:01.635Z,82.94
2018-02-06T19:58:01.704Z,83.31
2018-02-06T20:03:01.757Z,83.31
2018-02-06T20:08:01.649Z,84.00
2018-02-06T20:18:01.714Z,84.58
2018-02-06T20:34:01.748Z,83.54
2018-02-06T20:49:02.767Z,83.36
2018-02-06T21:04:01.751Z,83.21
2018-02-06T21:09:01.706Z,83.29
2018-02-06T21:24:01.696Z,84.68
2018-02-06T21:39:01.765Z,84.21
2018-02-06T21:44:01.635Z,84.21
2018-02-06T21:59:01.836Z,84.50
2018-02-06T22:14:01.746Z,84.92
2018-02-06T22:29:01.731Z,85.42
2018-02-06T22:34:01.640Z,85.42
2018-02-06T22:49:02.846Z,84.57
2018-02-06T23:05:01.753Z,84.96
2018-02-06T23:15:01.722Z,85.59
2018-02-06T23:30:01.779Z,85.67
2018-02-06T23:45:02.889Z,85.27
2018-02-06T23:50:01.764Z,85.36
